Time;durP1;ratioP1;P1;durP2;ratioP2;P2;SDS_P1;SDS_P2;PMS_P1;PMS_P2;Temp;Humidity;BMP_temperature;BMP_pressure;BME280_temperature;BME280_humidity;BME280_pressure;Samples;Min_cycle;Max_cycle;Signal;HPM_P1;HPM_P2
2022/10/22 00:02:14;;;;;;;1.77;0.50;;;;;;;12.06;100.00;95349.78;4875301;29;20656;-82
2022/10/22 00:04:40;;;;;;;2.50;0.57;;;;;;;12.08;100.00;95349.63;4864297;29;20200;-83
2022/10/22 00:07:05;;;;;;;1.23;0.60;;;;;;;12.14;100.00;95355.00;4864017;29;20654;-84
2022/10/22 00:09:30;;;;;;;3.40;0.70;;;;;;;12.09;100.00;95357.25;4863587;29;20247;-83
2022/10/22 00:11:56;;;;;;;1.57;0.77;;;;;;;12.15;100.00;95363.63;4878709;29;20667;-83
2022/10/22 00:14:21;;;;;;;2.40;0.60;;;;;;;12.12;100.00;95363.97;4879801;29;20184;-83
2022/10/22 00:16:46;;;;;;;2.60;0.70;;;;;;;12.09;100.00;95361.66;4872081;29;20271;-82
2022/10/22 00:19:12;;;;;;;3.40;0.67;;;;;;;12.02;100.00;95365.91;4879187;29;20283;-83
2022/10/22 00:21:37;;;;;;;1.17;0.80;;;;;;;11.93;100.00;95359.88;4860160;29;20207;-82
2022/10/22 00:24:02;;;;;;;1.70;0.57;;;;;;;11.97;100.00;95350.75;4891616;29;20192;-83
2022/10/22 00:26:28;;;;;;;1.43;0.50;;;;;;;11.97;100.00;95350.75;4858506;29;20195;-83
2022/10/22 00:28:53;;;;;;;1.30;0.70;;;;;;;11.81;100.00;95359.34;4871211;29;20231;-84
2022/10/22 00:31:19;;;;;;;2.90;0.67;;;;;;;11.86;100.00;95356.28;4862356;29;20199;-82
2022/10/22 00:33:45;;;;;;;1.17;0.47;;;;;;;11.85;100.00;95349.44;4862338;29;20192;-83
2022/10/22 00:36:10;;;;;;;2.20;0.70;;;;;;;12.01;100.00;95348.63;4861759;29;20280;-84
2022/10/22 00:38:35;;;;;;;3.00;0.43;;;;;;;12.06;100.00;95346.38;4878374;29;20690;-83
2022/10/22 00:41:01;;;;;;;2.73;0.47;;;;;;;11.99;100.00;95345.38;4862045;29;20679;-83
2022/10/22 00:43:26;;;;;;;2.50;0.57;;;;;;;12.02;100.00;95348.50;4877928;29;20195;-83
2022/10/22 00:45:52;;;;;;;0.73;0.53;;;;;;;12.03;100.00;95342.31;4877424;29;20202;-83
2022/10/22 00:48:24;;;;;;;2.23;0.60;;;;;;;12.02;100.00;95322.47;4872697;29;20207;-82
2022/10/22 00:50:56;;;;;;;0.97;0.50;;;;;;;12.09;100.00;95307.00;4871125;29;20247;-83
2022/10/22 00:53:46;;;;;;;2.67;0.80;;;;;;;12.10;100.00;95293.00;4871855;29;20200;-82
2022/10/22 00:56:11;;;;;;;1.97;0.77;;;;;;;12.03;100.00;95279.03;4876394;29;20200;-83
2022/10/22 00:58:42;;;;;;;2.93;0.63;;;;;;;12.04;100.00;95286.69;4861115;29;20203;-85
2022/10/22 01:01:11;;;;;;;1.03;0.43;;;;;;;11.98;100.00;95289.94;4862511;29;20195;-83
2022/10/22 01:03:36;;;;;;;2.50;0.60;;;;;;;11.87;100.00;95285.03;4862499;29;20198;-84
2022/10/22 01:06:03;;;;;;;1.67;0.60;;;;;;;11.92;100.00;95293.16;4862494;29;20200;-84
2022/10/22 01:08:42;;;;;;;4.73;0.97;;;;;;;11.82;100.00;95311.53;4877711;29;20184;-83
2022/10/22 01:11:15;;;;;;;3.23;0.60;;;;;;;11.87;100.00;95301.47;4872702;29;20702;-84
2022/10/22 01:14:03;;;;;;;2.97;1.27;;;;;;;11.83;100.00;95299.34;4876372;29;20192;-83
2022/10/22 01:16:46;;;;;;;1.70;0.70;;;;;;;11.81;100.00;95302.09;4867244;29;20669;-85
2022/10/22 01:19:35;;;;;;;1.33;0.60;;;;;;;11.90;100.00;95305.53;4874981;29;20651;-83
2022/10/22 01:22:09;;;;;;;3.30;0.77;;;;;;;11.87;100.00;95301.47;4861088;29;20230;-83
2022/10/22 01:24:55;;;;;;;1.50;0.60;;;;;;;11.97;100.00;95308.31;4861253;29;20203;-85
2022/10/22 01:27:42;;;;;;;3.40;0.73;;;;;;;11.97;100.00;95298.72;4873574;29;20604;-83
2022/10/22 01:30:10;;;;;;;1.30;0.50;;;;;;;12.01;100.00;95300.00;4877124;29;20219;-83
2022/10/22 01:32:40;;;;;;;1.10;0.53;;;;;;;12.00;100.00;95328.78;4860960;29;20378;-84
2022/10/22 01:35:08;;;;;;;2.73;0.50;;;;;;;11.93;100.00;95330.41;4877068;29;20211;-85
2022/10/22 01:37:47;;;;;;;2.37;0.60;;;;;;;12.02;100.00;95330.28;4861204;29;20680;-84
2022/10/22 01:40:14;;;;;;;2.37;0.60;;;;;;;12.03;100.00;95331.91;4876656;29;20219;-85
2022/10/22 01:42:39;;;;;;;2.13;0.70;;;;;;;12.03;100.00;95338.91;4861167;29;20267;-83
2022/10/22 01:45:10;;;;;;;2.23;0.60;;;;;;;12.05;100.00;95342.97;4866577;29;20199;-85
2022/10/22 01:47:52;;;;;;;5.50;1.70;;;;;;;11.97;100.00;95336.94;4888752;29;20212;-83
2022/10/22 01:50:32;;;;;;;0.60;0.60;;;;;;;12.02;100.00;95335.50;4873814;29;20215;-84
2022/10/22 01:53:16;;;;;;;1.80;0.50;;;;;;;12.02;100.00;95337.28;4874692;29;20575;-84
2022/10/22 01:55:57;;;;;;;2.53;0.70;;;;;;;12.07;100.00;95329.78;4876129;29;20207;-84
2022/10/22 01:58:44;;;;;;;0.77;0.40;;;;;;;12.10;100.00;95335.50;4874858;29;20215;-84
2022/10/22 02:01:17;;;;;;;0.67;0.50;;;;;;;12.00;100.00;95340.00;4874282;29;20196;-84
2022/10/22 02:04:00;;;;;;;2.00;0.60;;;;;;;12.06;100.00;95341.97;4876529;29;20275;-83
2022/10/22 02:06:27;;;;;;;1.20;0.50;;;;;;;12.11;100.00;95342.31;4860655;29;20195;-84
2022/10/22 02:08:53;;;;;;;2.37;0.60;;;;;;;12.07;100.00;95361.81;4873204;29;20322;-83
2022/10/22 02:11:19;;;;;;;0.73;0.60;;;;;;;12.12;100.00;95377.78;4876347;29;20271;-83
2022/10/22 02:13:48;;;;;;;0.60;0.40;;;;;;;12.15;100.00;95374.84;4869644;29;20202;-84
2022/10/22 02:16:23;;;;;;;0.60;0.60;;;;;;;12.15;100.00;95374.03;4876798;29;20184;-84
2022/10/22 02:18:51;;;;;;;2.83;0.50;;;;;;;12.13;100.00;95366.41;4874844;29;20247;-84
2022/10/22 02:21:17;;;;;;;2.67;0.77;;;;;;;12.09;100.00;95359.06;4861207;29;20207;-84
2022/10/22 02:23:42;;;;;;;2.77;0.73;;;;;;;12.11;100.00;95357.94;4872748;29;20299;-83
2022/10/22 02:26:24;;;;;;;0.70;0.63;;;;;;;12.18;100.00;95358.09;4858787;29;20191;-84
2022/10/22 02:29:00;;;;;;;1.50;0.80;;;;;;;12.23;100.00;95340.19;4873770;29;20220;-84
2022/10/22 02:31:30;;;;;;;1.53;0.60;;;;;;;12.25;100.00;95314.81;4876192;29;20187;-83
2022/10/22 02:33:57;;;;;;;2.63;0.60;;;;;;;12.25;100.00;95309.59;4860512;29;20240;-84
2022/10/22 02:36:23;;;;;;;1.50;0.60;;;;;;;12.27;99.80;95307.66;4859981;29;20203;-83
2022/10/22 02:38:50;;;;;;;1.73;0.50;;;;;;;12.35;99.83;95297.22;4876416;29;20239;-84
2022/10/22 02:41:17;;;;;;;0.60;0.53;;;;;;;12.35;98.79;95288.59;4854613;29;20204;-84
2022/10/22 02:43:44;;;;;;;0.73;0.60;;;;;;;12.34;97.45;95294.78;4875833;29;20203;-83
2022/10/22 02:46:10;;;;;;;1.30;0.77;;;;;;;12.33;96.35;95312.22;4875775;29;20196;-84
2022/10/22 02:48:35;;;;;;;0.57;0.50;;;;;;;12.29;97.51;95315.31;4875794;29;20199;-82
2022/10/22 02:51:01;;;;;;;2.43;0.67;;;;;;;12.34;97.03;95326.84;4873583;29;20195;-84
2022/10/22 02:53:26;;;;;;;0.63;0.63;;;;;;;12.30;98.54;95341.19;4876003;29;20204;-83
2022/10/22 02:55:51;;;;;;;2.50;0.63;;;;;;;12.24;99.07;95338.41;4858426;29;20256;-83
2022/10/22 02:58:17;;;;;;;1.73;0.77;;;;;;;12.28;100.00;95326.69;4874370;29;20219;-83
2022/10/22 03:00:42;;;;;;;1.20;0.70;;;;;;;12.23;100.00;95332.41;4860041;29;20276;-83
2022/10/22 03:03:08;;;;;;;1.83;0.50;;;;;;;12.25;99.19;95338.25;4883380;29;20190;-84
2022/10/22 03:05:33;;;;;;;0.47;0.47;;;;;;;12.24;99.05;95351.44;4885528;29;20216;-84
2022/10/22 03:07:58;;;;;;;1.30;0.60;;;;;;;12.23;99.91;95355.00;4894483;29;20204;-84
2022/10/22 03:10:23;;;;;;;4.27;0.70;;;;;;;12.31;100.00;95353.22;4876782;29;20216;-84
2022/10/22 03:12:49;;;;;;;1.17;0.70;;;;;;;12.31;100.00;95352.41;4867891;29;20195;-86
2022/10/22 03:15:14;;;;;;;0.73;0.50;;;;;;;12.35;100.00;95346.69;4879418;29;20662;-84
2022/10/22 03:17:39;;;;;;;1.83;0.70;;;;;;;12.24;100.00;95348.81;4862943;29;20634;-84
2022/10/22 03:20:05;;;;;;;3.23;0.93;;;;;;;12.12;100.00;95346.56;4863827;29;20225;-85
2022/10/22 03:22:33;;;;;;;1.70;0.70;;;;;;;12.16;100.00;95366.06;4880766;29;20208;-84
2022/10/22 03:25:00;;;;;;;1.17;0.60;;;;;;;12.16;100.00;95357.44;4880179;29;20276;-85
2022/10/22 03:27:27;;;;;;;1.43;0.70;;;;;;;12.17;100.00;95349.47;4880095;29;20188;-85
2022/10/22 03:29:52;;;;;;;0.70;0.50;;;;;;;12.10;100.00;95335.50;4879294;29;20590;-83
2022/10/22 03:32:18;;;;;;;0.97;0.60;;;;;;;12.03;100.00;95324.09;4862568;29;20196;-86
2022/10/22 03:34:43;;;;;;;0.73;0.53;;;;;;;12.09;100.00;95320.00;4863560;29;20196;-84
2022/10/22 03:37:08;;;;;;;1.47;0.60;;;;;;;11.99;100.00;95312.38;4879354;29;20211;-83
2022/10/22 03:39:35;;;;;;;3.20;0.60;;;;;;;11.93;100.00;95326.03;4879219;29;20318;-84
2022/10/22 03:42:01;;;;;;;2.80;0.53;;;;;;;11.86;100.00;95332.84;4864776;29;20195;-85
2022/10/22 03:44:26;;;;;;;1.40;0.50;;;;;;;11.85;100.00;95339.84;4864217;29;20195;-85
2022/10/22 03:46:52;;;;;;;0.97;0.60;;;;;;;11.87;100.00;95350.91;4863597;29;20191;-84
2022/10/22 03:49:17;;;;;;;1.93;0.50;;;;;;;11.83;100.00;95349.59;4875127;29;20314;-85
2022/10/22 03:51:42;;;;;;;0.90;0.40;;;;;;;11.88;100.00;95349.13;4878184;29;20196;-83
2022/10/22 03:54:08;;;;;;;2.03;0.47;;;;;;;11.89;100.00;95348.13;4870047;29;20226;-85
2022/10/22 03:56:33;;;;;;;2.53;0.50;;;;;;;11.88;100.00;95352.53;4880958;29;20623;-85
2022/10/22 03:59:00;;;;;;;0.97;0.50;;;;;;;11.94;99.62;95351.09;4870811;29;20234;-85
2022/10/22 04:01:26;;;;;;;1.93;0.47;;;;;;;11.99;99.61;95354.00;4866785;29;20199;-83
2022/10/22 04:03:52;;;;;;;0.63;0.50;;;;;;;11.99;100.00;95358.41;4866641;29;20196;-85
2022/10/22 04:06:17;;;;;;;0.47;0.47;;;;;;;12.08;99.76;95363.44;4880561;29;20620;-84
2022/10/22 04:08:44;;;;;;;0.80;0.50;;;;;;;11.91;100.00;95364.41;4880441;29;20251;-83
2022/10/22 04:11:10;;;;;;;0.80;0.60;;;;;;;11.95;99.61;95352.72;4862904;29;20195;-83
2022/10/22 04:13:36;;;;;;;0.83;0.50;;;;;;;11.92;99.00;95347.81;4879990;29;20707;-84
2022/10/22 04:16:13;;;;;;;0.80;0.67;;;;;;;11.89;98.51;95356.75;4863844;29;20199;-84
2022/10/22 04:18:38;;;;;;;2.50;0.40;;;;;;;11.88;97.92;95362.13;4875979;29;20404;-84
2022/10/22 04:21:04;;;;;;;1.90;0.40;;;;;;;11.92;96.28;95360.81;4876538;29;20282;-84
2022/10/22 04:23:30;;;;;;;0.43;0.43;;;;;;;12.01;95.52;95357.25;4859124;29;20210;-84
2022/10/22 04:26:00;;;;;;;1.50;0.57;;;;;;;12.07;94.08;95364.44;4885573;29;20196;-85
2022/10/22 04:28:26;;;;;;;0.47;0.40;;;;;;;12.17;91.71;95369.47;4879049;29;20196;-84
2022/10/22 04:30:51;;;;;;;0.97;0.60;;;;;;;12.21;91.97;95367.38;4864564;29;20243;-84
2022/10/22 04:33:16;;;;;;;0.27;0.27;;;;;;;12.21;90.98;95367.38;4875871;29;20193;-84
2022/10/22 04:35:41;;;;;;;0.60;0.30;;;;;;;12.28;89.94;95378.75;4860215;29;20221;-83
2022/10/22 04:38:07;;;;;;;0.40;0.40;;;;;;;12.40;88.59;95374.88;4879431;29;20596;-84
2022/10/22 04:40:32;;;;;;;0.80;0.40;;;;;;;12.45;88.03;95376.00;4864544;29;20226;-84
2022/10/22 04:42:57;;;;;;;0.63;0.20;;;;;;;12.46;87.90;95374.22;4864601;29;20206;-85
2022/10/22 04:45:23;;;;;;;0.47;0.30;;;;;;;12.47;88.28;95376.66;4880378;29;20199;-85
2022/10/22 04:47:48;;;;;;;0.40;0.40;;;;;;;12.51;88.31;95373.72;4863613;29;20295;-83
2022/10/22 04:50:13;;;;;;;0.80;0.20;;;;;;;12.49;89.28;95371.28;4863109;29;20636;-84
2022/10/22 04:52:39;;;;;;;0.60;0.40;;;;;;;12.51;85.96;95377.13;4878924;29;20195;-85
2022/10/22 04:55:04;;;;;;;2.60;0.80;;;;;;;12.47;87.74;95381.88;4862131;29;20314;-83
2022/10/22 04:57:30;;;;;;;1.23;0.40;;;;;;;12.52;88.63;95383.16;4862550;29;20555;-86
2022/10/22 04:59:55;;;;;;;0.30;0.30;;;;;;;12.49;89.17;95381.72;4862645;29;20235;-85
2022/10/22 05:02:20;;;;;;;0.37;0.30;;;;;;;12.46;86.51;95384.66;4869443;29;20203;-84
2022/10/22 05:04:46;;;;;;;0.40;0.40;;;;;;;12.50;86.19;95398.94;4880058;29;20695;-84
2022/10/22 05:07:11;;;;;;;0.77;0.40;;;;;;;12.54;87.30;95395.03;4876294;29;20188;-85
2022/10/22 05:09:36;;;;;;;0.23;0.20;;;;;;;12.52;88.17;95396.19;4861780;29;20228;-84
2022/10/22 05:12:02;;;;;;;1.90;0.40;;;;;;;12.49;88.57;95402.53;4886982;29;20206;-84
2022/10/22 05:14:27;;;;;;;1.50;0.40;;;;;;;12.52;89.12;95398.78;4862187;29;20196;-85
2022/10/22 05:16:53;;;;;;;0.20;0.20;;;;;;;12.43;89.37;95393.56;4860749;29;20216;-84
2022/10/22 05:19:22;;;;;;;0.47;0.20;;;;;;;12.40;89.57;95390.50;4861813;29;20708;-84
2022/10/22 05:21:48;;;;;;;2.97;0.50;;;;;;;12.34;89.93;95404.16;4860845;29;20211;-86
2022/10/22 05:24:13;;;;;;;1.20;0.30;;;;;;;12.32;89.73;95411.31;4856594;29;20204;-85
2022/10/22 05:26:39;;;;;;;0.30;0.30;;;;;;;12.27;89.60;95413.56;4865477;29;20180;-85
2022/10/22 05:29:04;;;;;;;1.13;0.40;;;;;;;12.23;89.24;95417.50;4874608;29;20611;-85
2022/10/22 05:31:29;;;;;;;1.47;0.40;;;;;;;12.23;89.66;95427.91;4876463;29;20238;-85
2022/10/22 05:33:55;;;;;;;0.97;0.40;;;;;;;12.15;89.79;95418.28;4875203;29;20268;-84
2022/10/22 05:36:21;;;;;;;0.87;0.30;;;;;;;12.29;88.79;95433.28;4875421;29;20207;-87
2022/10/22 05:38:47;;;;;;;0.50;0.30;;;;;;;12.32;88.50;95434.75;4875439;29;20207;-85
2022/10/22 05:41:16;;;;;;;0.40;0.40;;;;;;;12.33;87.65;95431.97;4875907;29;20188;-86
2022/10/22 05:43:41;;;;;;;1.03;0.33;;;;;;;12.40;88.18;95437.38;4860806;29;20207;-80
2022/10/22 05:46:09;;;;;;;0.30;0.30;;;;;;;12.44;87.74;95442.06;4874382;29;20200;-80
2022/10/22 05:48:34;;;;;;;0.90;0.30;;;;;;;12.43;88.12;95439.63;4874279;29;20283;-82
2022/10/22 05:51:07;;;;;;;0.90;0.40;;;;;;;12.38;88.44;95447.13;4876424;29;20270;-86
2022/10/22 05:53:34;;;;;;;3.90;0.50;;;;;;;12.41;88.19;95449.41;4858568;29;20661;-86
2022/10/22 05:56:03;;;;;;;0.50;0.50;;;;;;;12.36;88.15;95441.25;4875996;29;20196;-83
2022/10/22 05:58:29;;;;;;;1.67;0.50;;;;;;;12.34;88.68;95441.41;4859381;29;20631;-83
2022/10/22 06:01:00;;;;;;;0.90;0.40;;;;;;;12.44;88.28;95447.28;4880440;29;20235;-82
2022/10/22 06:03:25;;;;;;;1.80;0.50;;;;;;;12.39;88.76;95449.56;4902441;29;20176;-83
2022/10/22 06:05:50;;;;;;;1.50;0.70;;;;;;;12.42;88.77;95449.25;4901358;29;20196;-82
2022/10/22 06:08:16;;;;;;;1.47;0.40;;;;;;;12.41;89.13;95446.81;4901970;29;20183;-85
2022/10/22 06:10:45;;;;;;;1.80;0.40;;;;;;;12.41;88.95;95463.25;4885990;29;20196;-86
2022/10/22 06:13:25;;;;;;;1.97;0.37;;;;;;;12.35;87.93;95466.47;4870719;29;20286;-85
2022/10/22 06:15:53;;;;;;;1.00;0.90;;;;;;;12.48;87.65;95468.63;4861450;29;20196;-86
2022/10/22 06:18:18;;;;;;;1.20;0.60;;;;;;;12.51;88.46;95468.31;4862523;29;20240;-82
2022/10/22 13:17:39;;;;;;;4.22;0.98;;;;;;;17.96;53.71;95693.66;4840789;29;20241;-81
2022/10/22 13:20:19;;;;;;;5.28;0.93;;;;;;;17.98;53.69;95688.22;4840380;29;20289;-83
2022/10/22 13:23:02;;;;;;;2.95;0.80;;;;;;;17.94;53.14;95687.78;4843299;29;20655;-85
2022/10/22 13:25:39;;;;;;;3.47;1.10;;;;;;;18.06;52.82;95680.19;4839854;29;20289;-85
2022/10/22 13:28:14;;;;;;;4.80;1.13;;;;;;;18.10;54.56;95684.88;4841973;29;20654;-85
2022/10/22 13:57:35;;;;;;;2.53;0.90;;;;;;;18.37;52.02;95683.22;4823006;29;20712;-88
2022/10/22 14:10:13;;;;;;;5.57;2.28;;;;;;;18.41;50.66;95686.31;5477951;23;20860;-82
2022/10/22 14:12:39;;;;;;;7.63;2.38;;;;;;;18.19;52.66;95682.91;4844866;29;20212;-85
2022/10/22 14:15:04;;;;;;;2.67;1.10;;;;;;;18.28;53.31;95678.31;4824338;29;20205;-84
2022/10/22 14:17:30;;;;;;;2.85;1.05;;;;;;;18.26;52.84;95682.97;4839062;29;20587;-84
2022/10/22 14:19:55;;;;;;;3.67;0.98;;;;;;;18.29;54.03;95672.09;4841757;29;20216;-85
2022/10/22 14:22:22;;;;;;;3.30;1.00;;;;;;;18.27;53.52;95674.88;4831138;29;20205;-84
2022/10/22 14:24:48;;;;;;;1.50;1.13;;;;;;;18.18;53.92;95673.41;4826869;29;20197;-84
2022/10/22 14:27:14;;;;;;;6.22;1.20;;;;;;;18.12;54.19;95666.31;4825250;29;20269;-85
2022/10/22 14:29:39;;;;;;;3.88;0.80;;;;;;;18.24;52.66;95672.66;4825451;29;20253;-84
2022/10/22 14:32:32;;;;;;;2.78;0.85;;;;;;;18.23;51.81;95678.09;4833957;29;20279;-82
2022/10/22 14:56:29;;;;;;;2.83;1.08;;;;;;;17.71;57.03;95687.19;5010753;23;20252;-84
2022/10/22 14:58:54;;;;;;;3.75;0.93;;;;;;;17.65;57.99;95693.94;4824394;29;20659;-85
2022/10/22 15:01:19;;;;;;;4.85;1.27;;;;;;;17.68;58.20;95685.72;4839752;29;20218;-85
2022/10/22 15:03:45;;;;;;;1.73;1.00;;;;;;;17.58;58.81;95690.47;4826914;29;20202;-85
2022/10/22 15:06:10;;;;;;;3.08;1.10;;;;;;;17.55;58.48;95688.19;4826423;29;20206;-86
2022/10/22 18:35:30;;;;;;;6.80;1.97;;;;;;;13.60;79.70;95728.81;1260885;27;20251;-80
2022/10/22 18:37:56;;;;;;;3.20;1.40;;;;;;;13.60;80.06;95731.41;4856537;29;20205;-80
2022/10/22 18:40:47;;;;;;;4.90;1.90;;;;;;;13.66;79.63;95738.59;4914442;23;20277;-84
2022/10/22 18:47:40;;;;;;;5.07;2.00;;;;;;;13.56;80.10;95737.94;4862172;29;20195;-84
2022/10/22 18:50:05;;;;;;;3.17;1.87;;;;;;;13.54;80.49;95739.91;4948114;23;20267;-83
2022/10/22 18:52:30;;;;;;;3.87;1.83;;;;;;;13.50;80.77;95733.38;4847231;29;20570;-82
2022/10/22 18:54:56;;;;;;;3.83;1.80;;;;;;;13.53;80.21;95730.47;4845009;29;20193;-85
2022/10/22 18:57:21;;;;;;;5.60;1.90;;;;;;;13.53;80.03;95730.47;4839561;29;20606;-86
2022/10/22 18:59:46;;;;;;;6.13;2.40;;;;;;;13.47;80.17;95736.31;4838783;29;20219;-86
2022/10/22 19:02:15;;;;;;;3.23;1.60;;;;;;;13.42;80.39;95731.56;4843655;29;20213;-86
2022/10/22 19:04:41;;;;;;;3.50;2.03;;;;;;;13.38;80.24;95734.66;4844713;29;20204;-86
2022/10/22 19:07:07;;;;;;;3.20;1.40;;;;;;;13.33;80.86;95735.94;4813365;29;20186;-85
2022/10/22 19:09:32;;;;;;;3.17;1.57;;;;;;;13.29;80.04;95739.84;4826292;29;20236;-86
2022/10/22 19:12:00;;;;;;;3.73;1.30;;;;;;;13.38;79.21;95734.66;4836875;29;20226;-84
2022/10/22 19:14:34;;;;;;;4.23;1.77;;;;;;;13.36;79.23;95740.03;4820877;29;20549;-88
2022/10/22 19:17:00;;;;;;;4.70;1.40;;;;;;;13.41;78.33;95744.75;4820221;29;20276;-83
2022/10/22 19:19:25;;;;;;;2.23;1.20;;;;;;;13.42;78.17;95738.56;4816063;29;20691;-85
2022/10/22 19:21:51;;;;;;;4.47;1.87;;;;;;;13.43;77.76;95735.81;4850879;29;20636;-83
2022/10/22 19:24:18;;;;;;;1.87;1.43;;;;;;;13.47;77.56;95734.50;4825973;29;20194;-82
2022/10/22 19:26:43;;;;;;;4.47;1.50;;;;;;;13.56;77.26;95736.16;4824738;29;20189;-82
2022/10/22 19:29:12;;;;;;;5.20;1.60;;;;;;;13.59;77.05;95737.63;4824382;29;20763;-82
2022/10/22 19:31:37;;;;;;;3.13;1.30;;;;;;;13.57;77.33;95735.16;4823315;29;20185;-82
2022/10/22 19:34:02;;;;;;;2.07;1.27;;;;;;;13.56;77.56;95730.94;4841156;29;20620;-86
2022/10/22 19:36:29;;;;;;;6.80;1.50;;;;;;;13.56;77.71;95738.75;4838037;29;20217;-85
2022/10/22 19:38:55;;;;;;;3.77;1.57;;;;;;;13.54;77.44;95738.13;4824788;29;20281;-84
2022/10/22 19:41:22;;;;;;;2.93;1.53;;;;;;;13.56;77.41;95730.13;4824377;29;20285;-80
2022/10/22 19:43:49;;;;;;;4.00;1.40;;;;;;;13.54;77.63;95732.09;4824519;29;20788;-83
2022/10/22 19:46:15;;;;;;;6.03;1.87;;;;;;;13.54;77.77;95732.09;4809716;29;20201;-86
2022/10/22 19:48:40;;;;;;;6.23;1.50;;;;;;;13.47;78.36;95731.91;4817103;29;20573;-82
2022/10/22 19:51:08;;;;;;;3.33;1.50;;;;;;;13.48;78.42;95735.31;4825178;29;20292;-84
2022/10/22 19:53:38;;;;;;;3.67;1.30;;;;;;;13.42;79.07;95730.75;4825013;29;20536;-86
2022/10/22 19:56:06;;;;;;;4.60;1.50;;;;;;;13.40;79.52;95725.69;4824018;29;20194;-85
2022/10/22 19:58:32;;;;;;;4.00;1.40;;;;;;;13.43;79.63;95738.44;4824412;29;20218;-86
2022/10/22 20:01:03;;;;;;;2.83;1.50;;;;;;;13.47;79.26;95736.31;4808164;29;20209;-86
2022/10/22 20:03:59;;;;;;;3.63;1.40;;;;;;;13.46;79.64;95738.09;4810787;29;20198;-87
2022/10/22 20:06:26;;;;;;;4.60;1.87;;;;;;;13.49;79.57;95736.97;4825433;29;20197;-84
2022/10/22 20:09:02;;;;;;;4.83;1.70;;;;;;;13.38;80.43;95737.28;4809388;29;20290;-84
2022/10/22 20:11:38;;;;;;;2.87;1.17;;;;;;;13.39;80.93;95731.06;4824900;29;20200;-84
2022/10/22 20:14:04;;;;;;;7.00;1.73;;;;;;;13.36;80.44;95734.00;4840604;29;20198;-84
2022/10/22 20:16:39;;;;;;;5.13;1.60;;;;;;;13.36;80.74;95728.78;4816616;29;20206;-84
2022/10/22 20:19:17;;;;;;;;;;;;;;;;;;;;;
2022/10/22 20:21:54;;;;;;;6.20;2.00;;;;;;;13.33;80.90;95732.50;4816444;29;20679;-86
2022/10/22 20:24:23;;;;;;;5.67;1.90;;;;;;;13.32;80.48;95739.53;4808314;29;20701;-85
2022/10/22 20:27:09;;;;;;;3.87;1.67;;;;;;;13.32;80.87;95739.53;4808949;29;20199;-86
2022/10/22 20:30:13;;;;;;;4.97;2.00;;;;;;;13.29;81.00;95739.84;4806943;29;20205;-86
2022/10/22 20:33:10;;;;;;;5.87;1.50;;;;;;;13.25;81.53;95746.38;4808595;29;20293;-86
2022/10/22 20:35:58;;;;;;;4.63;1.87;;;;;;;13.23;82.30;95745.69;4826286;29;20201;-83
2022/10/22 20:38:27;;;;;;;6.07;1.63;;;;;;;13.20;82.60;95732.16;4807939;29;20253;-85
2022/10/22 20:41:14;;;;;;;4.87;1.67;;;;;;;13.35;82.02;95740.22;4820202;29;20293;-86
2022/10/22 20:43:50;;;;;;;3.00;1.70;;;;;;;13.41;82.23;95742.16;4821196;29;20258;-86
2022/10/22 20:46:30;;;;;;;4.80;1.47;;;;;;;13.38;82.51;95730.25;4813405;29;20194;-85
2022/10/22 20:49:08;;;;;;;5.50;1.70;;;;;;;13.40;82.59;95735.31;4824026;29;20240;-83
2022/10/22 20:51:45;;;;;;;2.50;1.63;;;;;;;13.39;82.97;95731.06;4823678;29;20214;-86
2022/10/22 20:54:16;;;;;;;4.73;1.90;;;;;;;13.45;83.17;95727.84;4803639;29;20238;-85
2022/10/22 20:56:59;;;;;;;2.60;1.73;;;;;;;13.47;83.27;95720.66;4807746;29;20249;-84
2022/10/22 20:59:33;;;;;;;3.17;1.53;;;;;;;13.43;83.39;95720.16;4809247;29;20251;-85
2022/10/22 21:02:05;;;;;;;5.50;1.57;;;;;;;13.40;83.83;95720.47;4806152;29;20193;-85
2022/10/22 21:04:34;;;;;;;6.23;1.97;;;;;;;13.27;84.46;95714.91;4813264;29;20190;-84
2022/10/22 21:07:26;;;;;;;2.70;1.70;;;;;;;13.36;84.55;95718.34;4827260;29;20202;-85
2022/10/22 21:09:54;;;;;;;5.47;2.13;;;;;;;13.31;85.00;95717.03;4822556;29;20213;-85
2022/10/22 21:12:19;;;;;;;4.67;1.83;;;;;;;13.25;85.15;95715.09;4819737;29;20610;-85
2022/10/22 21:14:48;;;;;;;3.57;1.77;;;;;;;13.19;86.06;95723.53;4833520;29;20325;-86
2022/10/22 21:17:16;;;;;;;2.40;1.80;;;;;;;13.23;86.58;95724.03;4838086;29;20292;-85
2022/10/22 21:19:46;;;;;;;4.93;1.90;;;;;;;13.23;86.79;95727.44;4792227;29;20225;-85
2022/10/22 21:22:11;;;;;;;7.50;2.00;;;;;;;13.25;86.67;95735.94;4835847;29;20300;-84
2022/10/22 21:24:41;;;;;;;4.40;2.00;;;;;;;13.26;86.78;95729.75;4822221;29;20661;-85
2022/10/22 21:27:08;;;;;;;3.80;1.77;;;;;;;13.30;87.02;95730.25;4842748;29;20548;-84
2022/10/22 21:29:36;;;;;;;4.40;1.63;;;;;;;13.22;87.88;95731.03;4845203;29;20213;-85
2022/10/22 21:32:08;;;;;;;8.30;2.00;;;;;;;13.22;87.92;95725.00;4838293;29;20208;-85
2022/10/22 21:34:36;;;;;;;3.03;1.80;;;;;;;13.25;87.57;95728.13;4807669;29;20212;-84
2022/10/22 21:37:09;;;;;;;3.67;1.73;;;;;;;13.17;88.24;95725.47;4802885;29;20189;-85
2022/10/22 21:39:43;;;;;;;5.57;1.70;;;;;;;13.20;88.48;95713.91;4802285;29;20234;-83
2022/10/22 21:42:10;;;;;;;3.20;1.70;;;;;;;13.19;88.27;95713.09;4819088;29;20217;-84
2022/10/22 21:44:40;;;;;;;2.30;1.60;;;;;;;13.18;88.93;95715.84;4824054;29;20197;-84
2022/10/22 21:47:13;;;;;;;7.30;1.90;;;;;;;13.13;89.22;95726.75;4812404;29;20202;-83
2022/10/22 21:49:47;;;;;;;3.67;2.20;;;;;;;13.14;89.08;95725.75;4822350;29;20214;-84
2022/10/22 21:52:15;;;;;;;2.60;1.80;;;;;;;13.05;90.26;95731.94;4807344;29;20202;-83
2022/10/22 21:54:40;;;;;;;4.17;2.10;;;;;;;13.08;90.20;95726.41;4815868;29;20201;-85
2022/10/22 21:57:06;;;;;;;4.33;1.80;;;;;;;13.05;91.05;95721.50;4829633;29;20190;-85
2022/10/22 21:59:39;;;;;;;1.97;1.60;;;;;;;13.14;90.38;95725.75;4823429;29;20218;-85
2022/10/22 22:02:04;;;;;;;3.67;1.67;;;;;;;13.08;91.48;95723.00;4806055;29;20628;-85
2022/10/22 22:04:30;;;;;;;3.90;2.10;;;;;;;13.08;91.36;95718.59;4808132;29;20284;-86
2022/10/22 22:06:58;;;;;;;5.53;1.90;;;;;;;13.07;91.48;95724.75;4805811;29;20579;-86
2022/10/22 22:09:26;;;;;;;3.47;1.90;;;;;;;13.07;91.95;95723.94;4819564;29;20210;-86
2022/10/22 22:11:57;;;;;;;4.40;2.07;;;;;;;13.05;92.30;95724.91;4806990;29;20194;-86
2022/10/22 22:14:29;;;;;;;3.07;1.90;;;;;;;13.10;92.95;95724.47;4815961;29;20273;-86
2022/10/22 22:16:57;;;;;;;5.20;2.00;;;;;;;13.17;92.64;95733.28;4806765;29;20666;-86
2022/10/22 22:19:28;;;;;;;4.40;1.70;;;;;;;13.17;92.75;95735.09;4804583;29;20221;-86
2022/10/22 22:21:56;;;;;;;3.03;1.80;;;;;;;13.29;92.77;95726.81;4816328;29;20206;-86
2022/10/22 22:24:39;;;;;;;7.70;2.03;;;;;;;13.30;92.85;95725.03;4807105;29;20213;-86
2022/10/22 22:27:35;;;;;;;2.20;1.70;;;;;;;13.37;92.49;95725.22;4822351;29;20197;-85
2022/10/22 22:30:07;;;;;;;3.53;1.93;;;;;;;13.31;92.83;95717.03;4829989;29;20221;-85
2022/10/22 22:32:45;;;;;;;4.47;2.23;;;;;;;13.36;92.75;95724.38;4816760;29;20208;-86
2022/10/22 22:35:29;;;;;;;5.43;2.07;;;;;;;13.38;92.87;95716.41;4813542;29;20779;-86
2022/10/22 22:37:59;;;;;;;6.27;1.80;;;;;;;13.34;93.36;95715.91;4837543;29;20264;-86
2022/10/22 22:40:29;;;;;;;3.03;1.90;;;;;;;13.35;93.51;95714.13;4806158;29;20333;-85
2022/10/22 22:43:07;;;;;;;3.30;1.80;;;;;;;13.37;93.12;95712.97;4810787;29;20208;-86
2022/10/22 22:46:05;;;;;;;2.63;1.80;;;;;;;13.40;93.31;95714.44;4835107;29;20297;-85
2022/10/22 22:48:47;;;;;;;5.47;1.90;;;;;;;13.35;93.43;95708.91;4830398;29;20186;-86
2022/10/22 22:51:23;;;;;;;2.87;2.03;;;;;;;13.35;93.10;95716.72;4803132;29;20332;-86
2022/10/22 22:54:01;;;;;;;2.27;1.90;;;;;;;13.31;93.27;95706.59;4819648;29;20206;-86
2022/10/22 22:56:40;;;;;;;4.53;2.00;;;;;;;13.27;93.74;95701.88;4806702;29;20292;-86
2022/10/22 22:59:15;;;;;;;3.23;2.03;;;;;;;13.26;93.58;95693.25;4805629;29;20456;-85
2022/10/22 23:01:48;;;;;;;4.77;1.77;;;;;;;13.16;94.17;95695.13;4807047;29;20197;-86
2022/10/22 23:04:21;;;;;;;3.57;1.87;;;;;;;13.19;93.43;95689.63;4821455;29;20301;-85
2022/10/22 23:07:12;;;;;;;3.80;1.93;;;;;;;13.18;93.68;95690.59;4821360;29;20194;-85
2022/10/22 23:10:03;;;;;;;5.70;1.80;;;;;;;13.11;93.50;95684.38;4809148;29;20250;-85
2022/10/22 23:12:33;;;;;;;2.87;1.60;;;;;;;13.13;93.44;95679.00;4804958;29;20221;-85